sensor_id;sensor_type;location;lat;lon;timestamp;P1;durP1;ratioP1;P2;durP2;ratioP2
68247;SDS011;55064;49.636;12.164;2023-05-14T00:00:33;9.85;;;4.20;;
68247;SDS011;55064;49.636;12.164;2023-05-14T00:02:59;9.05;;;4.53;;
68247;SDS011;55064;49.636;12.164;2023-05-14T00:05:25;9.50;;;4.57;;
68247;SDS011;55064;49.636;12.164;2023-05-14T00:07:51;9.37;;;4.60;;
68247;SDS011;55064;49.636;12.164;2023-05-14T00:10:17;10.05;;;4.60;;
68247;SDS011;55064;49.636;12.164;2023-05-14T00:12:44;9.23;;;4.32;;
68247;SDS011;55064;49.636;12.164;2023-05-14T00:15:11;11.70;;;5.07;;
68247;SDS011;55064;49.636;12.164;2023-05-14T00:17:39;8.00;;;3.30;;
68247;SDS011;55064;49.636;12.164;2023-05-14T00:20:06;8.60;;;4.13;;
68247;SDS011;55064;49.636;12.164;2023-05-14T00:22:34;9.67;;;5.23;;
68247;SDS011;55064;49.636;12.164;2023-05-14T00:25:01;10.27;;;4.45;;
68247;SDS011;55064;49.636;12.164;2023-05-14T00:27:26;9.87;;;4.97;;
68247;SDS011;55064;49.636;12.164;2023-05-14T00:29:56;9.98;;;4.95;;
68247;SDS011;55064;49.636;12.164;2023-05-14T00:32:22;11.05;;;4.95;;
68247;SDS011;55064;49.636;12.164;2023-05-14T00:34:50;10.80;;;5.10;;
68247;SDS011;55064;49.636;12.164;2023-05-14T00:37:16;10.37;;;4.80;;
68247;SDS011;55064;49.636;12.164;2023-05-14T00:39:41;9.05;;;4.28;;
68247;SDS011;55064;49.636;12.164;2023-05-14T00:42:09;10.67;;;5.10;;
68247;SDS011;55064;49.636;12.164;2023-05-14T00:44:37;9.90;;;5.00;;
68247;SDS011;55064;49.636;12.164;2023-05-14T00:47:03;9.23;;;4.67;;
68247;SDS011;55064;49.636;12.164;2023-05-14T00:49:29;9.20;;;4.78;;
68247;SDS011;55064;49.636;12.164;2023-05-14T00:51:54;9.77;;;4.83;;
68247;SDS011;55064;49.636;12.164;2023-05-14T00:54:22;9.93;;;4.88;;
68247;SDS011;55064;49.636;12.164;2023-05-14T00:56:48;10.05;;;4.53;;
68247;SDS011;55064;49.636;12.164;2023-05-14T00:59:14;9.53;;;4.57;;
68247;SDS011;55064;49.636;12.164;2023-05-14T01:01:40;10.73;;;4.85;;
68247;SDS011;55064;49.636;12.164;2023-05-14T01:04:06;9.10;;;4.90;;
68247;SDS011;55064;49.636;12.164;2023-05-14T01:06:36;9.60;;;4.85;;
68247;SDS011;55064;49.636;12.164;2023-05-14T01:15:25;10.37;;;4.73;;
68247;SDS011;55064;49.636;12.164;2023-05-14T01:18:02;9.88;;;4.53;;
68247;SDS011;55064;49.636;12.164;2023-05-14T01:20:32;10.88;;;5.07;;
68247;SDS011;55064;49.636;12.164;2023-05-14T01:22:58;11.57;;;5.03;;
68247;SDS011;55064;49.636;12.164;2023-05-14T01:25:23;10.57;;;4.93;;
68247;SDS011;55064;49.636;12.164;2023-05-14T01:28:06;9.75;;;4.20;;
68247;SDS011;55064;49.636;12.164;2023-05-14T01:30:42;9.32;;;4.50;;
68247;SDS011;55064;49.636;12.164;2023-05-14T01:33:10;11.52;;;5.00;;
68247;SDS011;55064;49.636;12.164;2023-05-14T01:35:38;10.77;;;5.10;;
68247;SDS011;55064;49.636;12.164;2023-05-14T01:38:05;10.90;;;5.10;;
68247;SDS011;55064;49.636;12.164;2023-05-14T01:40:33;10.15;;;4.80;;
68247;SDS011;55064;49.636;12.164;2023-05-14T01:43:00;9.30;;;4.70;;
68247;SDS011;55064;49.636;12.164;2023-05-14T01:45:26;9.88;;;4.38;;
68247;SDS011;55064;49.636;12.164;2023-05-14T01:47:52;11.33;;;5.20;;
68247;SDS011;55064;49.636;12.164;2023-05-14T01:50:17;11.50;;;4.50;;
68247;SDS011;55064;49.636;12.164;2023-05-14T01:52:46;10.48;;;4.63;;
68247;SDS011;55064;49.636;12.164;2023-05-14T01:55:12;9.98;;;4.32;;
68247;SDS011;55064;49.636;12.164;2023-05-14T01:57:38;10.23;;;4.53;;
68247;SDS011;55064;49.636;12.164;2023-05-14T02:00:03;9.60;;;4.70;;
68247;SDS011;55064;49.636;12.164;2023-05-14T02:02:30;10.18;;;4.82;;
68247;SDS011;55064;49.636;12.164;2023-05-14T02:04:57;11.52;;;5.00;;
68247;SDS011;55064;49.636;12.164;2023-05-14T02:07:24;11.33;;;4.80;;
68247;SDS011;55064;49.636;12.164;2023-05-14T02:09:50;11.50;;;5.63;;
68247;SDS011;55064;49.636;12.164;2023-05-14T02:12:16;10.57;;;4.70;;
68247;SDS011;55064;49.636;12.164;2023-05-14T02:14:43;9.73;;;4.72;;
68247;SDS011;55064;49.636;12.164;2023-05-14T02:17:12;9.93;;;4.67;;
68247;SDS011;55064;49.636;12.164;2023-05-14T02:19:40;10.45;;;5.07;;
68247;SDS011;55064;49.636;12.164;2023-05-14T02:22:06;11.77;;;5.50;;
68247;SDS011;55064;49.636;12.164;2023-05-14T02:24:34;11.20;;;4.47;;
68247;SDS011;55064;49.636;12.164;2023-05-14T02:26:59;11.43;;;5.45;;
68247;SDS011;55064;49.636;12.164;2023-05-14T02:29:26;9.73;;;4.13;;
68247;SDS011;55064;49.636;12.164;2023-05-14T02:31:51;8.95;;;4.07;;
68247;SDS011;55064;49.636;12.164;2023-05-14T02:34:19;12.40;;;5.30;;
68247;SDS011;55064;49.636;12.164;2023-05-14T02:36:47;11.18;;;5.03;;
68247;SDS011;55064;49.636;12.164;2023-05-14T02:39:12;11.15;;;5.25;;
68247;SDS011;55064;49.636;12.164;2023-05-14T02:41:38;11.73;;;4.80;;
68247;SDS011;55064;49.636;12.164;2023-05-14T02:44:03;11.87;;;5.10;;
68247;SDS011;55064;49.636;12.164;2023-05-14T02:46:32;10.85;;;5.20;;
68247;SDS011;55064;49.636;12.164;2023-05-14T02:48:57;10.68;;;4.90;;
68247;SDS011;55064;49.636;12.164;2023-05-14T02:51:23;10.73;;;5.13;;
68247;SDS011;55064;49.636;12.164;2023-05-14T02:53:48;11.83;;;5.23;;
68247;SDS011;55064;49.636;12.164;2023-05-14T02:56:18;12.65;;;4.85;;
68247;SDS011;55064;49.636;12.164;2023-05-14T02:58:44;10.83;;;5.00;;
68247;SDS011;55064;49.636;12.164;2023-05-14T03:01:09;11.20;;;5.03;;
68247;SDS011;55064;49.636;12.164;2023-05-14T03:03:37;11.97;;;4.90;;
68247;SDS011;55064;49.636;12.164;2023-05-14T03:06:03;10.98;;;5.18;;
68247;SDS011;55064;49.636;12.164;2023-05-14T03:08:29;11.97;;;4.80;;
68247;SDS011;55064;49.636;12.164;2023-05-14T03:10:54;10.20;;;4.60;;
68247;SDS011;55064;49.636;12.164;2023-05-14T03:13:19;10.53;;;4.63;;
68247;SDS011;55064;49.636;12.164;2023-05-14T03:15:45;10.83;;;4.67;;
68247;SDS011;55064;49.636;12.164;2023-05-14T03:18:11;10.40;;;4.80;;
68247;SDS011;55064;49.636;12.164;2023-05-14T03:20:37;13.07;;;5.20;;
68247;SDS011;55064;49.636;12.164;2023-05-14T03:23:02;10.77;;;4.85;;
68247;SDS011;55064;49.636;12.164;2023-05-14T03:25:28;10.27;;;4.47;;
68247;SDS011;55064;49.636;12.164;2023-05-14T03:27:53;11.87;;;4.80;;
68247;SDS011;55064;49.636;12.164;2023-05-14T03:30:18;11.33;;;5.00;;
68247;SDS011;55064;49.636;12.164;2023-05-14T03:32:44;10.70;;;4.80;;
68247;SDS011;55064;49.636;12.164;2023-05-14T03:35:09;10.25;;;4.25;;
68247;SDS011;55064;49.636;12.164;2023-05-14T03:37:35;10.33;;;4.37;;
68247;SDS011;55064;49.636;12.164;2023-05-14T03:40:00;11.03;;;4.80;;
68247;SDS011;55064;49.636;12.164;2023-05-14T03:42:26;10.20;;;4.57;;
68247;SDS011;55064;49.636;12.164;2023-05-14T03:44:51;10.60;;;4.50;;
68247;SDS011;55064;49.636;12.164;2023-05-14T03:47:17;9.90;;;4.63;;
68247;SDS011;55064;49.636;12.164;2023-05-14T03:49:43;10.43;;;4.82;;
68247;SDS011;55064;49.636;12.164;2023-05-14T03:52:08;10.07;;;4.37;;
68247;SDS011;55064;49.636;12.164;2023-05-14T03:54:33;10.30;;;4.40;;
68247;SDS011;55064;49.636;12.164;2023-05-14T03:56:59;11.13;;;4.90;;
68247;SDS011;55064;49.636;12.164;2023-05-14T03:59:26;11.15;;;4.97;;
68247;SDS011;55064;49.636;12.164;2023-05-14T04:01:52;12.45;;;5.15;;
68247;SDS011;55064;49.636;12.164;2023-05-14T04:04:19;10.83;;;4.73;;
68247;SDS011;55064;49.636;12.164;2023-05-14T04:06:44;10.85;;;4.60;;
68247;SDS011;55064;49.636;12.164;2023-05-14T04:09:16;10.83;;;4.70;;
68247;SDS011;55064;49.636;12.164;2023-05-14T04:24:15;10.68;;;5.07;;
68247;SDS011;55064;49.636;12.164;2023-05-14T04:30:03;11.80;;;4.88;;
68247;SDS011;55064;49.636;12.164;2023-05-14T04:38:42;10.50;;;3.95;;
68247;SDS011;55064;49.636;12.164;2023-05-14T04:44:45;10.25;;;4.20;;
68247;SDS011;55064;49.636;12.164;2023-05-14T04:47:18;11.13;;;4.47;;
68247;SDS011;55064;49.636;12.164;2023-05-14T04:50:02;10.52;;;4.05;;
68247;SDS011;55064;49.636;12.164;2023-05-14T04:55:49;13.98;;;4.57;;
68247;SDS011;55064;49.636;12.164;2023-05-14T05:01:37;9.90;;;4.20;;
68247;SDS011;55064;49.636;12.164;2023-05-14T05:10:46;10.27;;;3.33;;
68247;SDS011;55064;49.636;12.164;2023-05-14T05:16:33;10.93;;;4.20;;
68247;SDS011;55064;49.636;12.164;2023-05-14T05:34:33;8.85;;;3.63;;
68247;SDS011;55064;49.636;12.164;2023-05-14T05:40:21;13.03;;;3.83;;
68247;SDS011;55064;49.636;12.164;2023-05-14T05:46:15;10.38;;;5.00;;
68247;SDS011;55064;49.636;12.164;2023-05-14T05:48:41;10.50;;;4.37;;
68247;SDS011;55064;49.636;12.164;2023-05-14T05:57:44;8.95;;;3.83;;
68247;SDS011;55064;49.636;12.164;2023-05-14T06:00:12;7.45;;;2.90;;
68247;SDS011;55064;49.636;12.164;2023-05-14T06:05:59;8.13;;;3.67;;
68247;SDS011;55064;49.636;12.164;2023-05-14T06:08:27;11.47;;;3.60;;
68247;SDS011;55064;49.636;12.164;2023-05-14T06:17:32;8.73;;;4.15;;
68247;SDS011;55064;49.636;12.164;2023-05-14T06:19:58;13.15;;;5.97;;
68247;SDS011;55064;49.636;12.164;2023-05-14T06:22:23;12.83;;;5.20;;
68247;SDS011;55064;49.636;12.164;2023-05-14T06:34:21;10.65;;;4.75;;
68247;SDS011;55064;49.636;12.164;2023-05-14T06:39:47;11.02;;;5.25;;
68247;SDS011;55064;49.636;12.164;2023-05-14T06:42:32;10.23;;;4.70;;
68247;SDS011;55064;49.636;12.164;2023-05-14T06:45:00;11.32;;;4.43;;
68247;SDS011;55064;49.636;12.164;2023-05-14T06:47:33;11.48;;;5.15;;
68247;SDS011;55064;49.636;12.164;2023-05-14T06:50:15;10.30;;;4.72;;
68247;SDS011;55064;49.636;12.164;2023-05-14T06:52:40;11.63;;;4.57;;
68247;SDS011;55064;49.636;12.164;2023-05-14T06:55:17;12.33;;;5.33;;
68247;SDS011;55064;49.636;12.164;2023-05-14T07:03:37;12.13;;;5.38;;
68247;SDS011;55064;49.636;12.164;2023-05-14T07:06:04;11.70;;;5.25;;
68247;SDS011;55064;49.636;12.164;2023-05-14T07:11:34;11.70;;;5.13;;
68247;SDS011;55064;49.636;12.164;2023-05-14T07:19:44;13.80;;;5.43;;
68247;SDS011;55064;49.636;12.164;2023-05-14T07:25:32;13.48;;;5.85;;
68247;SDS011;55064;49.636;12.164;2023-05-14T07:31:19;12.50;;;5.43;;
68247;SDS011;55064;49.636;12.164;2023-05-14T07:33:57;11.82;;;5.72;;
68247;SDS011;55064;49.636;12.164;2023-05-14T07:36:34;15.77;;;6.17;;
68247;SDS011;55064;49.636;12.164;2023-05-14T07:39:07;14.75;;;6.43;;
68247;SDS011;55064;49.636;12.164;2023-05-14T07:44:36;11.73;;;6.07;;
68247;SDS011;55064;49.636;12.164;2023-05-14T07:49:54;11.30;;;5.57;;
68247;SDS011;55064;49.636;12.164;2023-05-14T07:52:21;13.50;;;6.43;;
68247;SDS011;55064;49.636;12.164;2023-05-14T07:54:47;13.02;;;6.70;;
68247;SDS011;55064;49.636;12.164;2023-05-14T07:57:13;11.93;;;6.27;;
68247;SDS011;55064;49.636;12.164;2023-05-14T07:59:46;12.13;;;6.18;;
68247;SDS011;55064;49.636;12.164;2023-05-14T08:02:13;13.68;;;6.30;;
68247;SDS011;55064;49.636;12.164;2023-05-14T08:04:42;14.52;;;6.82;;
68247;SDS011;55064;49.636;12.164;2023-05-14T08:07:08;10.90;;;5.80;;
68247;SDS011;55064;49.636;12.164;2023-05-14T08:09:39;12.27;;;5.93;;
68247;SDS011;55064;49.636;12.164;2023-05-14T08:18:01;11.35;;;5.82;;
68247;SDS011;55064;49.636;12.164;2023-05-14T08:20:32;10.88;;;5.72;;
68247;SDS011;55064;49.636;12.164;2023-05-14T08:22:57;12.07;;;5.80;;
68247;SDS011;55064;49.636;12.164;2023-05-14T08:25:23;12.15;;;6.25;;
68247;SDS011;55064;49.636;12.164;2023-05-14T08:27:51;11.97;;;5.83;;
68247;SDS011;55064;49.636;12.164;2023-05-14T08:30:19;11.50;;;5.43;;
68247;SDS011;55064;49.636;12.164;2023-05-14T08:32:45;10.05;;;4.95;;
68247;SDS011;55064;49.636;12.164;2023-05-14T08:35:11;12.07;;;6.80;;
68247;SDS011;55064;49.636;12.164;2023-05-14T08:37:36;11.23;;;5.83;;
68247;SDS011;55064;49.636;12.164;2023-05-14T08:40:04;12.60;;;6.45;;
68247;SDS011;55064;49.636;12.164;2023-05-14T08:42:31;13.85;;;5.82;;
68247;SDS011;55064;49.636;12.164;2023-05-14T08:45:01;12.60;;;5.60;;
68247;SDS011;55064;49.636;12.164;2023-05-14T08:47:28;11.07;;;5.22;;
68247;SDS011;55064;49.636;12.164;2023-05-14T08:50:01;11.25;;;5.28;;
68247;SDS011;55064;49.636;12.164;2023-05-14T08:52:28;9.90;;;5.00;;
68247;SDS011;55064;49.636;12.164;2023-05-14T08:55:01;10.50;;;5.38;;
68247;SDS011;55064;49.636;12.164;2023-05-14T08:57:29;9.27;;;5.10;;
68247;SDS011;55064;49.636;12.164;2023-05-14T08:59:57;10.65;;;5.40;;
68247;SDS011;55064;49.636;12.164;2023-05-14T09:02:23;9.82;;;5.22;;
68247;SDS011;55064;49.636;12.164;2023-05-14T09:04:54;11.13;;;4.60;;
68247;SDS011;55064;49.636;12.164;2023-05-14T09:07:20;9.50;;;5.00;;
68247;SDS011;55064;49.636;12.164;2023-05-14T09:09:46;9.63;;;4.83;;
68247;SDS011;55064;49.636;12.164;2023-05-14T09:12:14;9.68;;;4.88;;
68247;SDS011;55064;49.636;12.164;2023-05-14T09:14:40;9.30;;;4.70;;
68247;SDS011;55064;49.636;12.164;2023-05-14T09:17:05;10.93;;;5.20;;
68247;SDS011;55064;49.636;12.164;2023-05-14T09:19:31;8.57;;;4.20;;
68247;SDS011;55064;49.636;12.164;2023-05-14T09:21:58;8.40;;;4.33;;
68247;SDS011;55064;49.636;12.164;2023-05-14T09:24:25;10.63;;;4.82;;
68247;SDS011;55064;49.636;12.164;2023-05-14T09:26:56;8.50;;;4.43;;
68247;SDS011;55064;49.636;12.164;2023-05-14T09:29:25;8.68;;;4.28;;
68247;SDS011;55064;49.636;12.164;2023-05-14T09:31:55;7.90;;;4.10;;
68247;SDS011;55064;49.636;12.164;2023-05-14T09:34:28;8.65;;;4.18;;
68247;SDS011;55064;49.636;12.164;2023-05-14T09:36:58;9.77;;;3.60;;
68247;SDS011;55064;49.636;12.164;2023-05-14T09:39:25;7.70;;;3.80;;
68247;SDS011;55064;49.636;12.164;2023-05-14T09:41:51;7.55;;;3.85;;
68247;SDS011;55064;49.636;12.164;2023-05-14T09:44:17;8.57;;;3.42;;
68247;SDS011;55064;49.636;12.164;2023-05-14T09:46:44;7.83;;;3.80;;
68247;SDS011;55064;49.636;12.164;2023-05-14T09:49:10;8.50;;;3.78;;
68247;SDS011;55064;49.636;12.164;2023-05-14T09:51:42;7.67;;;3.83;;
68247;SDS011;55064;49.636;12.164;2023-05-14T09:54:25;8.23;;;4.00;;
68247;SDS011;55064;49.636;12.164;2023-05-14T10:05:49;7.90;;;4.37;;
68247;SDS011;55064;49.636;12.164;2023-05-14T10:08:32;8.25;;;4.20;;
68247;SDS011;55064;49.636;12.164;2023-05-14T10:11:04;8.98;;;4.40;;
68247;SDS011;55064;49.636;12.164;2023-05-14T10:13:54;8.55;;;4.70;;
68247;SDS011;55064;49.636;12.164;2023-05-14T10:16:45;8.63;;;4.17;;
68247;SDS011;55064;49.636;12.164;2023-05-14T10:19:14;9.02;;;4.03;;
68247;SDS011;55064;49.636;12.164;2023-05-14T10:21:43;8.35;;;4.25;;
68247;SDS011;55064;49.636;12.164;2023-05-14T10:24:12;8.52;;;4.32;;
68247;SDS011;55064;49.636;12.164;2023-05-14T10:26:40;8.38;;;4.18;;
68247;SDS011;55064;49.636;12.164;2023-05-14T10:29:09;7.33;;;3.87;;
68247;SDS011;55064;49.636;12.164;2023-05-14T10:37:14;10.95;;;4.95;;
68247;SDS011;55064;49.636;12.164;2023-05-14T10:39:42;10.35;;;4.93;;
68247;SDS011;55064;49.636;12.164;2023-05-14T10:42:20;9.27;;;5.00;;
68247;SDS011;55064;49.636;12.164;2023-05-14T10:44:52;9.05;;;4.72;;
68247;SDS011;55064;49.636;12.164;2023-05-14T10:47:26;9.30;;;4.35;;
68247;SDS011;55064;49.636;12.164;2023-05-14T10:49:53;9.30;;;4.45;;
68247;SDS011;55064;49.636;12.164;2023-05-14T10:52:20;10.90;;;4.32;;
68247;SDS011;55064;49.636;12.164;2023-05-14T10:57:19;10.00;;;4.50;;
68247;SDS011;55064;49.636;12.164;2023-05-14T10:59:48;9.00;;;4.38;;
68247;SDS011;55064;49.636;12.164;2023-05-14T11:02:23;8.50;;;4.22;;
68247;SDS011;55064;49.636;12.164;2023-05-14T11:05:12;8.15;;;4.47;;
68247;SDS011;55064;49.636;12.164;2023-05-14T11:07:41;8.03;;;4.30;;
68247;SDS011;55064;49.636;12.164;2023-05-14T11:10:09;8.07;;;4.30;;
68247;SDS011;55064;49.636;12.164;2023-05-14T11:12:37;9.13;;;4.20;;
68247;SDS011;55064;49.636;12.164;2023-05-14T11:15:05;8.48;;;4.10;;
68247;SDS011;55064;49.636;12.164;2023-05-14T11:17:34;8.55;;;4.10;;
68247;SDS011;55064;49.636;12.164;2023-05-14T11:20:00;8.33;;;4.30;;
68247;SDS011;55064;49.636;12.164;2023-05-14T11:22:29;8.43;;;4.35;;
68247;SDS011;55064;49.636;12.164;2023-05-14T11:24:57;7.43;;;4.13;;
68247;SDS011;55064;49.636;12.164;2023-05-14T11:27:36;7.83;;;4.20;;
68247;SDS011;55064;49.636;12.164;2023-05-14T11:30:02;8.30;;;4.70;;
68247;SDS011;55064;49.636;12.164;2023-05-14T11:32:32;8.82;;;4.40;;
68247;SDS011;55064;49.636;12.164;2023-05-14T11:34:59;8.90;;;4.22;;
68247;SDS011;55064;49.636;12.164;2023-05-14T11:37:24;9.57;;;4.37;;
68247;SDS011;55064;49.636;12.164;2023-05-14T11:39:51;8.27;;;4.07;;
68247;SDS011;55064;49.636;12.164;2023-05-14T11:42:18;7.60;;;3.80;;
68247;SDS011;55064;49.636;12.164;2023-05-14T11:44:50;7.57;;;4.07;;
68247;SDS011;55064;49.636;12.164;2023-05-14T11:47:19;8.32;;;4.43;;
68247;SDS011;55064;49.636;12.164;2023-05-14T11:49:48;8.98;;;3.90;;
68247;SDS011;55064;49.636;12.164;2023-05-14T11:52:16;7.57;;;4.10;;
68247;SDS011;55064;49.636;12.164;2023-05-14T11:54:44;7.28;;;3.50;;
68247;SDS011;55064;49.636;12.164;2023-05-14T11:57:14;7.53;;;3.80;;
68247;SDS011;55064;49.636;12.164;2023-05-14T11:59:40;6.97;;;3.65;;
68247;SDS011;55064;49.636;12.164;2023-05-14T12:02:10;7.82;;;4.38;;
68247;SDS011;55064;49.636;12.164;2023-05-14T12:04:36;9.63;;;4.30;;
68247;SDS011;55064;49.636;12.164;2023-05-14T12:07:12;7.95;;;4.00;;
68247;SDS011;55064;49.636;12.164;2023-05-14T12:09:40;9.38;;;4.20;;
68247;SDS011;55064;49.636;12.164;2023-05-14T12:12:12;6.70;;;3.47;;
68247;SDS011;55064;49.636;12.164;2023-05-14T12:14:41;9.35;;;4.78;;
68247;SDS011;55064;49.636;12.164;2023-05-14T12:17:14;7.75;;;3.80;;
68247;SDS011;55064;49.636;12.164;2023-05-14T12:19:45;8.95;;;3.80;;
68247;SDS011;55064;49.636;12.164;2023-05-14T12:22:14;8.15;;;4.00;;
68247;SDS011;55064;49.636;12.164;2023-05-14T12:24:55;7.67;;;4.13;;
68247;SDS011;55064;49.636;12.164;2023-05-14T12:30:46;7.15;;;3.70;;
68247;SDS011;55064;49.636;12.164;2023-05-14T12:33:30;8.60;;;4.10;;
68247;SDS011;55064;49.636;12.164;2023-05-14T12:35:58;8.35;;;3.75;;
68247;SDS011;55064;49.636;12.164;2023-05-14T12:38:27;8.17;;;3.93;;
68247;SDS011;55064;49.636;12.164;2023-05-14T12:40:56;6.93;;;3.70;;
68247;SDS011;55064;49.636;12.164;2023-05-14T12:43:21;8.10;;;4.00;;
68247;SDS011;55064;49.636;12.164;2023-05-14T12:45:54;8.07;;;4.00;;
68247;SDS011;55064;49.636;12.164;2023-05-14T12:48:20;8.13;;;4.40;;
68247;SDS011;55064;49.636;12.164;2023-05-14T12:50:46;8.23;;;4.60;;
68247;SDS011;55064;49.636;12.164;2023-05-14T12:53:12;8.15;;;4.80;;
68247;SDS011;55064;49.636;12.164;2023-05-14T12:55:40;9.05;;;3.97;;
68247;SDS011;55064;49.636;12.164;2023-05-14T12:58:05;8.60;;;4.43;;
68247;SDS011;55064;49.636;12.164;2023-05-14T13:00:33;8.80;;;4.40;;
68247;SDS011;55064;49.636;12.164;2023-05-14T13:03:01;8.10;;;4.45;;
68247;SDS011;55064;49.636;12.164;2023-05-14T13:05:27;9.70;;;4.57;;
68247;SDS011;55064;49.636;12.164;2023-05-14T13:07:53;8.20;;;4.38;;
68247;SDS011;55064;49.636;12.164;2023-05-14T13:10:18;10.20;;;5.43;;
68247;SDS011;55064;49.636;12.164;2023-05-14T13:12:59;9.63;;;4.18;;
68247;SDS011;55064;49.636;12.164;2023-05-14T13:15:26;9.70;;;4.70;;
68247;SDS011;55064;49.636;12.164;2023-05-14T13:20:27;9.43;;;4.33;;
68247;SDS011;55064;49.636;12.164;2023-05-14T13:22:53;7.38;;;4.05;;
68247;SDS011;55064;49.636;12.164;2023-05-14T13:25:18;9.80;;;4.93;;
68247;SDS011;55064;49.636;12.164;2023-05-14T13:27:47;8.60;;;4.63;;
68247;SDS011;55064;49.636;12.164;2023-05-14T13:30:21;9.75;;;4.22;;
68247;SDS011;55064;49.636;12.164;2023-05-14T13:44:05;9.68;;;4.78;;
68247;SDS011;55064;49.636;12.164;2023-05-14T13:46:43;7.33;;;3.83;;
68247;SDS011;55064;49.636;12.164;2023-05-14T13:49:09;10.90;;;4.93;;
68247;SDS011;55064;49.636;12.164;2023-05-14T13:51:42;9.07;;;4.82;;
68247;SDS011;55064;49.636;12.164;2023-05-14T14:00:03;10.60;;;4.20;;
68247;SDS011;55064;49.636;12.164;2023-05-14T14:02:31;8.73;;;3.97;;
68247;SDS011;55064;49.636;12.164;2023-05-14T14:05:11;8.50;;;4.70;;
68247;SDS011;55064;49.636;12.164;2023-05-14T14:07:48;8.65;;;3.45;;
68247;SDS011;55064;49.636;12.164;2023-05-14T14:13:04;7.60;;;4.00;;
68247;SDS011;55064;49.636;12.164;2023-05-14T14:21:31;9.35;;;4.70;;
68247;SDS011;55064;49.636;12.164;2023-05-14T14:27:06;10.37;;;4.17;;
68247;SDS011;55064;49.636;12.164;2023-05-14T14:32:35;8.07;;;4.38;;
68247;SDS011;55064;49.636;12.164;2023-05-14T14:37:55;8.13;;;3.97;;
68247;SDS011;55064;49.636;12.164;2023-05-14T14:40:21;8.70;;;3.67;;
68247;SDS011;55064;49.636;12.164;2023-05-14T14:51:59;7.55;;;3.97;;
68247;SDS011;55064;49.636;12.164;2023-05-14T14:57:47;8.00;;;3.95;;
68247;SDS011;55064;49.636;12.164;2023-05-14T15:00:28;7.93;;;3.83;;
68247;SDS011;55064;49.636;12.164;2023-05-14T15:02:55;7.97;;;3.88;;
68247;SDS011;55064;49.636;12.164;2023-05-14T15:05:41;6.97;;;3.83;;
68247;SDS011;55064;49.636;12.164;2023-05-14T15:08:23;7.68;;;3.90;;
68247;SDS011;55064;49.636;12.164;2023-05-14T15:11:09;7.70;;;3.60;;
68247;SDS011;55064;49.636;12.164;2023-05-14T15:16:30;8.27;;;3.85;;
68247;SDS011;55064;49.636;12.164;2023-05-14T15:19:03;7.18;;;3.90;;
68247;SDS011;55064;49.636;12.164;2023-05-14T15:21:29;8.10;;;4.03;;
68247;SDS011;55064;49.636;12.164;2023-05-14T15:24:02;7.87;;;4.27;;
68247;SDS011;55064;49.636;12.164;2023-05-14T15:29:23;9.50;;;4.30;;
68247;SDS011;55064;49.636;12.164;2023-05-14T15:31:50;8.17;;;4.70;;
68247;SDS011;55064;49.636;12.164;2023-05-14T15:34:23;7.88;;;4.63;;
68247;SDS011;55064;49.636;12.164;2023-05-14T15:37:02;9.07;;;4.17;;
68247;SDS011;55064;49.636;12.164;2023-05-14T15:39:29;7.82;;;4.10;;
68247;SDS011;55064;49.636;12.164;2023-05-14T15:44:59;7.97;;;4.47;;
68247;SDS011;55064;49.636;12.164;2023-05-14T15:47:37;9.00;;;3.87;;
68247;SDS011;55064;49.636;12.164;2023-05-14T15:50:12;8.30;;;4.40;;
68247;SDS011;55064;49.636;12.164;2023-05-14T15:52:43;8.48;;;4.10;;
68247;SDS011;55064;49.636;12.164;2023-05-14T15:55:13;7.30;;;4.03;;
68247;SDS011;55064;49.636;12.164;2023-05-14T15:57:38;7.60;;;3.90;;
68247;SDS011;55064;49.636;12.164;2023-05-14T16:00:04;10.53;;;4.20;;
68247;SDS011;55064;49.636;12.164;2023-05-14T16:05:34;7.47;;;4.10;;
68247;SDS011;55064;49.636;12.164;2023-05-14T16:08:14;6.85;;;3.78;;
68247;SDS011;55064;49.636;12.164;2023-05-14T16:10:56;8.40;;;3.85;;
68247;SDS011;55064;49.636;12.164;2023-05-14T16:13:23;8.37;;;3.97;;
68247;SDS011;55064;49.636;12.164;2023-05-14T16:18:47;8.02;;;4.03;;
68247;SDS011;55064;49.636;12.164;2023-05-14T16:21:25;7.55;;;3.92;;
68247;SDS011;55064;49.636;12.164;2023-05-14T16:23:52;7.88;;;4.20;;
68247;SDS011;55064;49.636;12.164;2023-05-14T16:26:17;8.70;;;4.07;;
68247;SDS011;55064;49.636;12.164;2023-05-14T16:28:44;8.77;;;4.28;;
68247;SDS011;55064;49.636;12.164;2023-05-14T16:33:53;9.57;;;4.80;;
68247;SDS011;55064;49.636;12.164;2023-05-14T16:36:19;8.73;;;4.37;;
68247;SDS011;55064;49.636;12.164;2023-05-14T16:38:47;8.48;;;3.53;;
68247;SDS011;55064;49.636;12.164;2023-05-14T16:41:16;9.57;;;4.65;;
68247;SDS011;55064;49.636;12.164;2023-05-14T16:43:47;8.65;;;4.05;;
68247;SDS011;55064;49.636;12.164;2023-05-14T16:46:28;9.07;;;3.95;;
68247;SDS011;55064;49.636;12.164;2023-05-14T16:49:08;7.80;;;4.53;;
68247;SDS011;55064;49.636;12.164;2023-05-14T16:51:41;7.45;;;3.50;;
68247;SDS011;55064;49.636;12.164;2023-05-14T16:54:08;7.07;;;2.90;;
68247;SDS011;55064;49.636;12.164;2023-05-14T16:56:37;6.20;;;3.30;;
68247;SDS011;55064;49.636;12.164;2023-05-14T16:59:02;6.18;;;2.80;;
68247;SDS011;55064;49.636;12.164;2023-05-14T17:01:33;6.03;;;2.80;;
68247;SDS011;55064;49.636;12.164;2023-05-14T17:03:59;6.40;;;3.00;;
68247;SDS011;55064;49.636;12.164;2023-05-14T17:06:29;8.25;;;3.38;;
68247;SDS011;55064;49.636;12.164;2023-05-14T17:08:55;8.35;;;4.05;;
68247;SDS011;55064;49.636;12.164;2023-05-14T17:11:25;8.48;;;4.47;;
68247;SDS011;55064;49.636;12.164;2023-05-14T17:14:02;6.53;;;3.00;;
68247;SDS011;55064;49.636;12.164;2023-05-14T17:16:30;6.15;;;2.60;;
68247;SDS011;55064;49.636;12.164;2023-05-14T17:18:56;6.00;;;2.50;;
68247;SDS011;55064;49.636;12.164;2023-05-14T17:21:34;8.07;;;3.27;;
68247;SDS011;55064;49.636;12.164;2023-05-14T17:23:59;7.72;;;4.30;;
68247;SDS011;55064;49.636;12.164;2023-05-14T17:26:25;5.90;;;2.57;;
68247;SDS011;55064;49.636;12.164;2023-05-14T17:28:50;9.13;;;3.50;;
68247;SDS011;55064;49.636;12.164;2023-05-14T17:31:20;9.20;;;3.63;;
68247;SDS011;55064;49.636;12.164;2023-05-14T17:34:00;6.70;;;3.50;;
68247;SDS011;55064;49.636;12.164;2023-05-14T17:36:29;10.38;;;6.30;;
68247;SDS011;55064;49.636;12.164;2023-05-14T17:41:41;7.90;;;4.10;;
68247;SDS011;55064;49.636;12.164;2023-05-14T17:44:14;6.18;;;3.00;;
68247;SDS011;55064;49.636;12.164;2023-05-14T17:46:42;6.03;;;2.78;;
68247;SDS011;55064;49.636;12.164;2023-05-14T17:49:21;6.07;;;2.80;;
68247;SDS011;55064;49.636;12.164;2023-05-14T17:54:38;7.07;;;2.97;;
68247;SDS011;55064;49.636;12.164;2023-05-14T17:57:12;6.07;;;2.78;;
68247;SDS011;55064;49.636;12.164;2023-05-14T17:59:48;8.88;;;4.65;;
68247;SDS011;55064;49.636;12.164;2023-05-14T18:02:15;8.25;;;4.45;;
68247;SDS011;55064;49.636;12.164;2023-05-14T18:04:43;7.57;;;3.50;;
68247;SDS011;55064;49.636;12.164;2023-05-14T18:07:10;8.73;;;4.17;;
68247;SDS011;55064;49.636;12.164;2023-05-14T18:09:36;7.05;;;3.22;;
68247;SDS011;55064;49.636;12.164;2023-05-14T18:12:02;8.67;;;2.93;;
68247;SDS011;55064;49.636;12.164;2023-05-14T18:14:30;11.48;;;3.05;;
68247;SDS011;55064;49.636;12.164;2023-05-14T18:17:05;7.35;;;3.67;;
68247;SDS011;55064;49.636;12.164;2023-05-14T18:19:37;7.70;;;3.40;;
68247;SDS011;55064;49.636;12.164;2023-05-14T18:22:12;10.65;;;5.07;;
68247;SDS011;55064;49.636;12.164;2023-05-14T18:24:57;10.60;;;4.97;;